HLF8817 VHHH-ZSPD
Flight info
| Callsign | HLF8817 |
|---|---|
| Flight time | 1h 41m |
| Altitude | 35100 |
| Route | LEKEN V601 DOTMI/K0906S1065 A470 LJG B221 SHZ W58 BK |
| Aircraft | B77L/H-SDE1E2E3FGHIJ2J3J4J5M1RWXY/LB1D1 |
Departure
| Time | 2026-04-30 05:24 |
|---|---|
| Airport | Hong Kong International Airport (VHHH) |
Arrival
| Time | 2026-04-30 07:05 |
|---|---|
| Airport | Shanghai Pudong International Airport (ZSPD) |
| Time | Latitude | Longitude | Altitude | Speed | Heading |
|---|---|---|---|---|---|
| 2026-04-30 05:05 | 22.29722 | 113.91733 | 40 ft | 0 kts | 251° |
| 2026-04-30 05:09 | 22.29722 | 113.91734 | 40 ft | 0 kts | 251° |
| 2026-04-30 05:10 | 22.29725 | 113.91746 | 40 ft | 3 kts | 251° |
| 2026-04-30 05:10 | 22.29732 | 113.91766 | 40 ft | 3 kts | 251° |
| 2026-04-30 05:10 | 22.29739 | 113.91787 | 40 ft | 3 kts | 251° |
| 2026-04-30 05:10 | 22.29745 | 113.91806 | 35 ft | 3 kts | 232° |
| 2026-04-30 05:11 | 22.29758 | 113.91818 | 36 ft | 3 kts | 185° |
| 2026-04-30 05:11 | 22.29775 | 113.91816 | 38 ft | 2 kts | 161° |
| 2026-04-30 05:11 | 22.29787 | 113.91812 | 40 ft | 3 kts | 161° |
| 2026-04-30 05:11 | 22.29806 | 113.91805 | 62 ft | 3 kts | 159° |
| 2026-04-30 05:12 | 22.29824 | 113.91796 | 37 ft | 3 kts | 149° |
| 2026-04-30 05:12 | 22.29842 | 113.91785 | 37 ft | 3 kts | 149° |
| 2026-04-30 05:12 | 22.29859 | 113.91773 | 38 ft | 3 kts | 149° |
| 2026-04-30 05:12 | 22.29877 | 113.91762 | 39 ft | 3 kts | 149° |
| 2026-04-30 05:13 | 22.29894 | 113.91751 | 37 ft | 3 kts | 158° |
| 2026-04-30 05:13 | 22.29913 | 113.91744 | 35 ft | 3 kts | 161° |
| 2026-04-30 05:13 | 22.29923 | 113.91740 | 38 ft | 0 kts | 161° |
| 2026-04-30 05:15 | 22.29922 | 113.91740 | 38 ft | 1 kts | 161° |
| 2026-04-30 05:16 | 22.29909 | 113.91745 | 35 ft | 3 kts | 159° |
| 2026-04-30 05:16 | 22.29882 | 113.91762 | 38 ft | 6 kts | 143° |
| 2026-04-30 05:16 | 22.29868 | 113.91805 | 36 ft | 7 kts | 85° |
| 2026-04-30 05:16 | 22.29885 | 113.91863 | 40 ft | 9 kts | 71° |
| 2026-04-30 05:17 | 22.29910 | 113.91934 | 40 ft | 11 kts | 69° |
| 2026-04-30 05:17 | 22.29937 | 113.92018 | 40 ft | 13 kts | 72° |
| 2026-04-30 05:17 | 22.29999 | 113.92077 | 40 ft | 13 kts | 356° |
| 2026-04-30 05:17 | 22.30091 | 113.92043 | 40 ft | 15 kts | 341° |
| 2026-04-30 05:18 | 22.30135 | 113.91958 | 40 ft | 15 kts | 254° |
| 2026-04-30 05:18 | 22.30099 | 113.91842 | 40 ft | 17 kts | 251° |
| 2026-04-30 05:18 | 22.30058 | 113.91716 | 40 ft | 18 kts | 251° |
| 2026-04-30 05:18 | 22.30017 | 113.91590 | 40 ft | 18 kts | 251° |
| 2026-04-30 05:19 | 22.29975 | 113.91463 | 40 ft | 18 kts | 251° |
| 2026-04-30 05:19 | 22.29935 | 113.91335 | 40 ft | 18 kts | 251° |
| 2026-04-30 05:19 | 22.29893 | 113.91207 | 40 ft | 18 kts | 251° |
| 2026-04-30 05:19 | 22.29852 | 113.91079 | 39 ft | 18 kts | 251° |
| 2026-04-30 05:20 | 22.29811 | 113.90952 | 40 ft | 18 kts | 250° |
| 2026-04-30 05:20 | 22.29770 | 113.90824 | 40 ft | 18 kts | 251° |
| 2026-04-30 05:20 | 22.29728 | 113.90697 | 40 ft | 18 kts | 250° |
| 2026-04-30 05:20 | 22.29687 | 113.90569 | 40 ft | 18 kts | 251° |
| 2026-04-30 05:21 | 22.29646 | 113.90441 | 40 ft | 18 kts | 251° |
| 2026-04-30 05:21 | 22.29604 | 113.90314 | 40 ft | 18 kts | 250° |
| 2026-04-30 05:21 | 22.29563 | 113.90186 | 40 ft | 18 kts | 250° |
| 2026-04-30 05:21 | 22.29522 | 113.90058 | 40 ft | 18 kts | 250° |
| 2026-04-30 05:22 | 22.29490 | 113.89928 | 40 ft | 18 kts | 271° |
| 2026-04-30 05:22 | 22.29565 | 113.89834 | 40 ft | 16 kts | 338° |
| 2026-04-30 05:22 | 22.29627 | 113.89819 | 40 ft | 7 kts | 22° |
| 2026-04-30 05:22 | 22.29646 | 113.89867 | 40 ft | 8 kts | 73° |
| 2026-04-30 05:23 | 22.29672 | 113.89955 | 40 ft | 30 kts | 71° |
| 2026-04-30 05:23 | 22.29815 | 113.90398 | 40 ft | 98 kts | 71° |
| 2026-04-30 05:23 | 22.30107 | 113.91308 | 40 ft | 156 kts | 71° |
| 2026-04-30 05:23 | 22.30503 | 113.92524 | 271 ft | 175 kts | 69° |
| 2026-04-30 05:24 | 22.30897 | 113.93750 | 1019 ft | 168 kts | 69° |
| 2026-04-30 05:24 | 22.31277 | 113.94938 | 1724 ft | 166 kts | 66° |
| 2026-04-30 05:24 | 22.31672 | 113.96160 | 2124 ft | 187 kts | 66° |
| 2026-04-30 05:24 | 22.32136 | 113.97584 | 2313 ft | 213 kts | 69° |
| 2026-04-30 05:25 | 22.32656 | 113.99200 | 2505 ft | 242 kts | 68° |
| 2026-04-30 05:25 | 22.33224 | 114.00966 | 3144 ft | 250 kts | 68° |
| 2026-04-30 05:25 | 22.33772 | 114.02778 | 3737 ft | 261 kts | 77° |
| 2026-04-30 05:25 | 22.33864 | 114.04095 | 4052 ft | 271 kts | 95° |
| 2026-04-30 05:26 | 22.32939 | 114.06671 | 4968 ft | 282 kts | 131° |
| 2026-04-30 05:26 | 22.32027 | 114.07648 | 5516 ft | 279 kts | 146° |
| 2026-04-30 05:26 | 22.30303 | 114.08579 | 6194 ft | 280 kts | 169° |
| 2026-04-30 05:26 | 22.27770 | 114.08767 | 6820 ft | 271 kts | 187° |
| 2026-04-30 05:27 | 22.26506 | 114.08713 | 7168 ft | 277 kts | 185° |
| 2026-04-30 05:27 | 22.24555 | 114.08683 | 7821 ft | 283 kts | 184° |
| 2026-04-30 05:27 | 22.22578 | 114.08667 | 8556 ft | 285 kts | 184° |
| 2026-04-30 05:27 | 22.19931 | 114.08642 | 9510 ft | 290 kts | 185° |
| 2026-04-30 05:28 | 22.17914 | 114.08711 | 10155 ft | 294 kts | 173° |
| 2026-04-30 05:28 | 22.16576 | 114.09196 | 10402 ft | 310 kts | 154° |
| 2026-04-30 05:28 | 22.14913 | 114.10830 | 10563 ft | 342 kts | 124° |
| 2026-04-30 05:28 | 22.13778 | 114.13166 | 10716 ft | 362 kts | 117° |
| 2026-04-30 05:29 | 22.12665 | 114.15656 | 10884 ft | 385 kts | 117° |
| 2026-04-30 05:29 | 22.11458 | 114.18305 | 11293 ft | 400 kts | 118° |
| 2026-04-30 05:29 | 22.10192 | 114.21012 | 11876 ft | 409 kts | 118° |
| 2026-04-30 05:29 | 22.08886 | 114.23764 | 12643 ft | 414 kts | 119° |
| 2026-04-30 05:30 | 22.07391 | 114.26400 | 13266 ft | 414 kts | 133° |
| 2026-04-30 05:30 | 22.05201 | 114.28391 | 13845 ft | 411 kts | 149° |
| 2026-04-30 05:30 | 22.02796 | 114.30119 | 14393 ft | 419 kts | 148° |
| 2026-04-30 05:30 | 22.00410 | 114.31948 | 15123 ft | 422 kts | 147° |
| 2026-04-30 05:31 | 21.98035 | 114.33823 | 15888 ft | 425 kts | 147° |
| 2026-04-30 05:31 | 21.95640 | 114.35721 | 16577 ft | 428 kts | 147° |
| 2026-04-30 05:31 | 21.93222 | 114.37631 | 17242 ft | 433 kts | 147° |
| 2026-04-30 05:31 | 21.90772 | 114.39560 | 17923 ft | 436 kts | 147° |
| 2026-04-30 05:32 | 21.88347 | 114.41526 | 18519 ft | 437 kts | 142° |
| 2026-04-30 05:32 | 21.86393 | 114.44087 | 18872 ft | 453 kts | 120° |
| 2026-04-30 05:32 | 21.85326 | 114.47254 | 19377 ft | 461 kts | 102° |
| 2026-04-30 05:32 | 21.85123 | 114.50707 | 19957 ft | 461 kts | 86° |
| 2026-04-30 05:33 | 21.85409 | 114.54173 | 20403 ft | 467 kts | 84° |
| 2026-04-30 05:33 | 21.85736 | 114.57678 | 20878 ft | 473 kts | 84° |
| 2026-04-30 05:33 | 21.85853 | 114.58921 | 21057 ft | 474 kts | 84° |
| 2026-04-30 05:34 | 21.86131 | 114.61383 | 21446 ft | 473 kts | 83° |
| 2026-04-30 05:34 | 21.86468 | 114.64923 | 21935 ft | 477 kts | 85° |
| 2026-04-30 05:34 | 21.86733 | 114.68508 | 22415 ft | 482 kts | 86° |
| 2026-04-30 05:34 | 21.86977 | 114.72069 | 22909 ft | 485 kts | 86° |
| 2026-04-30 05:35 | 21.87233 | 114.75708 | 23418 ft | 489 kts | 86° |
| 2026-04-30 05:35 | 21.87502 | 114.79367 | 23856 ft | 492 kts | 86° |
| 2026-04-30 05:35 | 21.87781 | 114.83050 | 24269 ft | 495 kts | 85° |
| 2026-04-30 05:35 | 21.88064 | 114.86750 | 24675 ft | 498 kts | 85° |
| 2026-04-30 05:36 | 21.88346 | 114.90478 | 25077 ft | 501 kts | 85° |
| 2026-04-30 05:36 | 21.88589 | 114.94226 | 25467 ft | 504 kts | 88° |
| 2026-04-30 05:36 | 21.88722 | 114.98003 | 25857 ft | 506 kts | 89° |
| 2026-04-30 05:36 | 21.88805 | 115.01812 | 26242 ft | 509 kts | 89° |
| 2026-04-30 05:37 | 21.88884 | 115.05634 | 26646 ft | 512 kts | 89° |
| 2026-04-30 05:37 | 21.88977 | 115.09478 | 27030 ft | 515 kts | 89° |
| 2026-04-30 05:37 | 21.89087 | 115.13345 | 27398 ft | 518 kts | 89° |
| 2026-04-30 05:37 | 21.89206 | 115.17238 | 27782 ft | 521 kts | 88° |
| 2026-04-30 05:38 | 21.89329 | 115.21152 | 28148 ft | 524 kts | 88° |
| 2026-04-30 05:38 | 21.89450 | 115.25085 | 28510 ft | 527 kts | 88° |
| 2026-04-30 05:38 | 21.89568 | 115.29043 | 28857 ft | 530 kts | 89° |
| 2026-04-30 05:38 | 21.89682 | 115.33014 | 29194 ft | 533 kts | 89° |
| 2026-04-30 05:39 | 21.89795 | 115.37020 | 29506 ft | 536 kts | 89° |
| 2026-04-30 05:39 | 21.89908 | 115.41038 | 29801 ft | 538 kts | 89° |
| 2026-04-30 05:39 | 21.90020 | 115.45029 | 30189 ft | 539 kts | 89° |
| 2026-04-30 05:39 | 21.90132 | 115.49057 | 30607 ft | 537 kts | 89° |
| 2026-04-30 05:40 | 21.90244 | 115.53073 | 31045 ft | 536 kts | 89° |
| 2026-04-30 05:40 | 21.90354 | 115.57094 | 31453 ft | 535 kts | 89° |
| 2026-04-30 05:40 | 21.90511 | 115.61098 | 31844 ft | 535 kts | 86° |
| 2026-04-30 05:40 | 21.90939 | 115.65084 | 32227 ft | 535 kts | 80° |
| 2026-04-30 05:41 | 21.91700 | 115.68946 | 32730 ft | 532 kts | 77° |
| 2026-04-30 05:41 | 21.92535 | 115.72816 | 33158 ft | 532 kts | 77° |
| 2026-04-30 05:41 | 21.93375 | 115.76715 | 33374 ft | 535 kts | 77° |
| 2026-04-30 05:41 | 21.94202 | 115.80630 | 33696 ft | 536 kts | 78° |
| 2026-04-30 05:42 | 21.95011 | 115.84541 | 34106 ft | 534 kts | 78° |
| 2026-04-30 05:42 | 21.95806 | 115.88445 | 34483 ft | 532 kts | 78° |
| 2026-04-30 05:42 | 21.96597 | 115.92351 | 34845 ft | 531 kts | 78° |
| 2026-04-30 05:42 | 21.97383 | 115.96240 | 35066 ft | 532 kts | 78° |
| 2026-04-30 05:43 | 21.98956 | 116.04015 | 35020 ft | 533 kts | 78° |
| 2026-04-30 05:43 | 22.01306 | 116.11469 | 35022 ft | 525 kts | 54° |
| 2026-04-30 05:44 | 22.03666 | 116.14442 | 35029 ft | 521 kts | 38° |
| 2026-04-30 05:44 | 22.06633 | 116.16633 | 35029 ft | 516 kts | 24° |
| 2026-04-30 05:44 | 22.09934 | 116.18130 | 35027 ft | 512 kts | 13° |
| 2026-04-30 05:44 | 22.13391 | 116.18933 | 35006 ft | 505 kts | 359° |
| 2026-04-30 05:45 | 22.20333 | 116.18701 | 35019 ft | 500 kts | 352° |
| 2026-04-30 05:45 | 22.27306 | 116.18312 | 35034 ft | 503 kts | 353° |
| 2026-04-30 05:46 | 22.34263 | 116.18033 | 35032 ft | 505 kts | 353° |
| 2026-04-30 05:46 | 22.41288 | 116.17806 | 35030 ft | 505 kts | 353° |
| 2026-04-30 05:47 | 22.48310 | 116.17581 | 35034 ft | 504 kts | 353° |
| 2026-04-30 05:47 | 22.55311 | 116.17349 | 35032 ft | 503 kts | 353° |
| 2026-04-30 05:48 | 22.62299 | 116.17116 | 35035 ft | 501 kts | 353° |
| 2026-04-30 05:48 | 22.69237 | 116.17220 | 35121 ft | 504 kts | 6° |
| 2026-04-30 05:49 | 22.72649 | 116.18238 | 35150 ft | 510 kts | 18° |
| 2026-04-30 05:49 | 22.75849 | 116.19950 | 35138 ft | 517 kts | 30° |
| 2026-04-30 05:49 | 22.81544 | 116.24734 | 35146 ft | 521 kts | 36° |
| 2026-04-30 05:50 | 22.87233 | 116.29631 | 35143 ft | 523 kts | 35° |
| 2026-04-30 05:50 | 22.93019 | 116.34452 | 35148 ft | 524 kts | 34° |
| 2026-04-30 05:51 | 22.98838 | 116.39276 | 35148 ft | 526 kts | 34° |
| 2026-04-30 05:51 | 23.04633 | 116.44053 | 35145 ft | 527 kts | 34° |
| 2026-04-30 05:52 | 23.10481 | 116.48880 | 35143 ft | 527 kts | 34° |
| 2026-04-30 05:52 | 23.16315 | 116.53707 | 35148 ft | 526 kts | 34° |
| 2026-04-30 05:53 | 23.22108 | 116.58509 | 35143 ft | 525 kts | 34° |
| 2026-04-30 05:53 | 23.27911 | 116.63322 | 35166 ft | 524 kts | 34° |
| 2026-04-30 05:54 | 23.33713 | 116.68141 | 35158 ft | 524 kts | 34° |
| 2026-04-30 05:54 | 23.39468 | 116.72926 | 35163 ft | 523 kts | 34° |
| 2026-04-30 05:55 | 23.45157 | 116.77904 | 35152 ft | 525 kts | 41° |
| 2026-04-30 05:55 | 23.50224 | 116.83601 | 35167 ft | 526 kts | 44° |
| 2026-04-30 05:56 | 23.55254 | 116.89419 | 35138 ft | 527 kts | 44° |
| 2026-04-30 05:56 | 23.60295 | 116.95174 | 35158 ft | 527 kts | 44° |
| 2026-04-30 05:57 | 23.65392 | 117.00956 | 35151 ft | 527 kts | 44° |
| 2026-04-30 05:57 | 23.70446 | 117.06701 | 35155 ft | 527 kts | 44° |
| 2026-04-30 05:58 | 23.75542 | 117.12504 | 35148 ft | 528 kts | 44° |
| 2026-04-30 05:58 | 23.80853 | 117.17960 | 35144 ft | 527 kts | 39° |
| 2026-04-30 05:59 | 23.86362 | 117.23263 | 35149 ft | 527 kts | 39° |
| 2026-04-30 05:59 | 23.91855 | 117.28581 | 35169 ft | 526 kts | 39° |
| 2026-04-30 06:00 | 23.97299 | 117.33904 | 35165 ft | 527 kts | 39° |
| 2026-04-30 06:00 | 24.02775 | 117.39276 | 35166 ft | 527 kts | 39° |
| 2026-04-30 06:01 | 24.08225 | 117.44622 | 35163 ft | 528 kts | 39° |
| 2026-04-30 06:01 | 24.13720 | 117.49996 | 35151 ft | 529 kts | 40° |
| 2026-04-30 06:02 | 24.18754 | 117.55839 | 35155 ft | 531 kts | 46° |
| 2026-04-30 06:02 | 24.23683 | 117.61896 | 35158 ft | 531 kts | 46° |
| 2026-04-30 06:03 | 24.28649 | 117.67920 | 35161 ft | 532 kts | 45° |
| 2026-04-30 06:03 | 24.33620 | 117.73895 | 35149 ft | 532 kts | 45° |
| 2026-04-30 06:04 | 24.38619 | 117.79904 | 35157 ft | 532 kts | 45° |
| 2026-04-30 06:05 | 24.46078 | 117.88897 | 35163 ft | 532 kts | 45° |
| 2026-04-30 06:05 | 24.51069 | 117.94928 | 35161 ft | 532 kts | 45° |
| 2026-04-30 06:06 | 24.56029 | 118.00927 | 35149 ft | 532 kts | 45° |
| 2026-04-30 06:06 | 24.61084 | 118.06815 | 35159 ft | 531 kts | 43° |
| 2026-04-30 06:07 | 24.66265 | 118.12631 | 35168 ft | 531 kts | 43° |
| 2026-04-30 06:07 | 24.71376 | 118.18460 | 35165 ft | 532 kts | 43° |
| 2026-04-30 06:08 | 24.76515 | 118.24316 | 35163 ft | 532 kts | 43° |
| 2026-04-30 06:08 | 24.81682 | 118.30197 | 35169 ft | 533 kts | 43° |
| 2026-04-30 06:09 | 24.86809 | 118.36042 | 35183 ft | 533 kts | 43° |
| 2026-04-30 06:09 | 24.91990 | 118.41960 | 35159 ft | 535 kts | 43° |
| 2026-04-30 06:10 | 24.97123 | 118.47837 | 35169 ft | 534 kts | 43° |
| 2026-04-30 06:10 | 25.02286 | 118.53751 | 35172 ft | 535 kts | 43° |
| 2026-04-30 06:11 | 25.07455 | 118.59678 | 35170 ft | 535 kts | 43° |
| 2026-04-30 06:11 | 25.12561 | 118.65627 | 35152 ft | 536 kts | 44° |
| 2026-04-30 06:12 | 25.17586 | 118.71719 | 35168 ft | 535 kts | 45° |
| 2026-04-30 06:12 | 25.22613 | 118.77812 | 35177 ft | 535 kts | 44° |
| 2026-04-30 06:13 | 25.27635 | 118.83869 | 35174 ft | 536 kts | 44° |
| 2026-04-30 06:13 | 25.32656 | 118.89931 | 35180 ft | 537 kts | 44° |
| 2026-04-30 06:14 | 25.37740 | 118.95999 | 35187 ft | 536 kts | 43° |
| 2026-04-30 06:14 | 25.42023 | 119.00978 | 35173 ft | 536 kts | 43° |
| 2026-04-30 06:15 | 25.48010 | 119.07943 | 35183 ft | 536 kts | 43° |
| 2026-04-30 06:15 | 25.52281 | 119.12944 | 35186 ft | 537 kts | 43° |
| 2026-04-30 06:16 | 25.57396 | 119.18948 | 35181 ft | 537 kts | 43° |
| 2026-04-30 06:16 | 25.62530 | 119.24980 | 35179 ft | 537 kts | 43° |
| 2026-04-30 06:17 | 25.67630 | 119.30992 | 35197 ft | 537 kts | 43° |
| 2026-04-30 06:17 | 25.73074 | 119.36632 | 35208 ft | 529 kts | 30° |
| 2026-04-30 06:18 | 25.79433 | 119.40462 | 35204 ft | 518 kts | 15° |
| 2026-04-30 06:18 | 25.86288 | 119.42780 | 35212 ft | 513 kts | 10° |
| 2026-04-30 06:19 | 25.93127 | 119.44993 | 35202 ft | 514 kts | 10° |
| 2026-04-30 06:19 | 25.99981 | 119.47290 | 35231 ft | 515 kts | 11° |
| 2026-04-30 06:20 | 26.06873 | 119.49647 | 35214 ft | 518 kts | 11° |
| 2026-04-30 06:20 | 26.13750 | 119.51988 | 35219 ft | 521 kts | 11° |
| 2026-04-30 06:21 | 26.20679 | 119.54528 | 35190 ft | 528 kts | 17° |
| 2026-04-30 06:21 | 26.27236 | 119.58288 | 35210 ft | 537 kts | 27° |
| 2026-04-30 06:22 | 26.33508 | 119.62808 | 35205 ft | 538 kts | 28° |
| 2026-04-30 06:22 | 26.39813 | 119.67320 | 35204 ft | 536 kts | 27° |
| 2026-04-30 06:23 | 26.46125 | 119.71753 | 35207 ft | 535 kts | 27° |
| 2026-04-30 06:23 | 26.52438 | 119.76183 | 35194 ft | 536 kts | 26° |
| 2026-04-30 06:24 | 26.58724 | 119.80587 | 35202 ft | 535 kts | 26° |
| 2026-04-30 06:24 | 26.65046 | 119.85024 | 35196 ft | 535 kts | 26° |
| 2026-04-30 06:25 | 26.71323 | 119.89439 | 35217 ft | 536 kts | 26° |
| 2026-04-30 06:25 | 26.77659 | 119.93902 | 35209 ft | 537 kts | 26° |
| 2026-04-30 06:26 | 26.83983 | 119.98362 | 35197 ft | 539 kts | 26° |
| 2026-04-30 06:26 | 26.90346 | 120.02862 | 35200 ft | 540 kts | 26° |
| 2026-04-30 06:27 | 26.96673 | 120.07367 | 35212 ft | 543 kts | 26° |
| 2026-04-30 06:27 | 27.03064 | 120.11922 | 35184 ft | 544 kts | 26° |
| 2026-04-30 06:28 | 27.09424 | 120.16459 | 35191 ft | 544 kts | 26° |
| 2026-04-30 06:28 | 27.15827 | 120.21012 | 35233 ft | 544 kts | 25° |
| 2026-04-30 06:29 | 27.22253 | 120.25510 | 35205 ft | 543 kts | 25° |
| 2026-04-30 06:29 | 27.28638 | 120.29983 | 35200 ft | 543 kts | 25° |
| 2026-04-30 06:30 | 27.35059 | 120.34501 | 35199 ft | 542 kts | 25° |
| 2026-04-30 06:30 | 27.41420 | 120.39002 | 35201 ft | 544 kts | 25° |
| 2026-04-30 06:31 | 27.47837 | 120.43574 | 35201 ft | 545 kts | 25° |
| 2026-04-30 06:31 | 27.54214 | 120.48126 | 35200 ft | 546 kts | 25° |
| 2026-04-30 06:32 | 27.60646 | 120.52723 | 35207 ft | 546 kts | 26° |
| 2026-04-30 06:32 | 27.67082 | 120.57328 | 35212 ft | 547 kts | 25° |
| 2026-04-30 06:33 | 27.73655 | 120.61399 | 35199 ft | 533 kts | 13° |
| 2026-04-30 06:33 | 27.80703 | 120.63626 | 35206 ft | 516 kts | 359° |
| 2026-04-30 06:34 | 27.87783 | 120.64292 | 35206 ft | 510 kts | 354° |
| 2026-04-30 06:34 | 27.94852 | 120.64852 | 35216 ft | 512 kts | 354° |
| 2026-04-30 06:35 | 28.01955 | 120.65515 | 35217 ft | 514 kts | 355° |
| 2026-04-30 06:35 | 28.09118 | 120.66212 | 35237 ft | 517 kts | 354° |
| 2026-04-30 06:36 | 28.16276 | 120.66920 | 35217 ft | 519 kts | 354° |
| 2026-04-30 06:36 | 28.23482 | 120.67638 | 35208 ft | 520 kts | 354° |
| 2026-04-30 06:37 | 28.30704 | 120.68353 | 35204 ft | 520 kts | 354° |
| 2026-04-30 06:37 | 28.37868 | 120.69062 | 35221 ft | 518 kts | 354° |
| 2026-04-30 06:38 | 28.45032 | 120.69775 | 35218 ft | 515 kts | 353° |
| 2026-04-30 06:38 | 28.52177 | 120.70492 | 35229 ft | 512 kts | 353° |
| 2026-04-30 06:39 | 28.59267 | 120.71202 | 35255 ft | 513 kts | 353° |
| 2026-04-30 06:39 | 28.66337 | 120.71912 | 35236 ft | 511 kts | 353° |
| 2026-04-30 06:40 | 28.73436 | 120.72643 | 35246 ft | 512 kts | 353° |
| 2026-04-30 06:40 | 28.80557 | 120.73422 | 35234 ft | 513 kts | 353° |
| 2026-04-30 06:41 | 28.87644 | 120.74185 | 35233 ft | 515 kts | 353° |
| 2026-04-30 06:41 | 28.94781 | 120.74928 | 35241 ft | 512 kts | 353° |
| 2026-04-30 06:42 | 29.01875 | 120.75652 | 35238 ft | 514 kts | 353° |
| 2026-04-30 06:42 | 29.09032 | 120.76414 | 35304 ft | 513 kts | 353° |
| 2026-04-30 06:43 | 29.16123 | 120.77129 | 35250 ft | 514 kts | 352° |
| 2026-04-30 06:43 | 29.23286 | 120.77860 | 35241 ft | 516 kts | 353° |
| 2026-04-30 06:44 | 29.30411 | 120.78606 | 35281 ft | 517 kts | 353° |
| 2026-04-30 06:44 | 29.37582 | 120.79358 | 35228 ft | 517 kts | 353° |
| 2026-04-30 06:45 | 29.44742 | 120.80107 | 35227 ft | 514 kts | 352° |
| 2026-04-30 06:45 | 29.51820 | 120.80846 | 35231 ft | 511 kts | 352° |
| 2026-04-30 06:46 | 29.58869 | 120.82681 | 35235 ft | 550 kts | 18° |
| 2026-04-30 06:46 | 29.62062 | 120.85257 | 35236 ft | 573 kts | 37° |
| 2026-04-30 06:46 | 29.64611 | 120.88818 | 35245 ft | 586 kts | 51° |
| 2026-04-30 06:47 | 29.68968 | 120.96873 | 35215 ft | 599 kts | 54° |
| 2026-04-30 06:47 | 29.73381 | 121.05049 | 35222 ft | 597 kts | 53° |
| 2026-04-30 06:48 | 29.77896 | 121.13000 | 35234 ft | 594 kts | 52° |
| 2026-04-30 06:48 | 29.82432 | 121.20889 | 35261 ft | 592 kts | 52° |
| 2026-04-30 06:49 | 29.86953 | 121.28840 | 35207 ft | 594 kts | 52° |
| 2026-04-30 06:49 | 29.91493 | 121.36833 | 35238 ft | 596 kts | 52° |
| 2026-04-30 06:50 | 29.96047 | 121.44855 | 35231 ft | 597 kts | 52° |
| 2026-04-30 06:50 | 30.00605 | 121.52888 | 35194 ft | 599 kts | 53° |
| 2026-04-30 06:51 | 30.05621 | 121.60278 | 35026 ft | 567 kts | 30° |
| 2026-04-30 06:51 | 30.08832 | 121.62636 | 34102 ft | 531 kts | 12° |
| 2026-04-30 06:51 | 30.12266 | 121.63778 | 32288 ft | 499 kts | 353° |
| 2026-04-30 06:51 | 30.15658 | 121.63713 | 30439 ft | 476 kts | 338° |
| 2026-04-30 06:52 | 30.18825 | 121.63049 | 28794 ft | 461 kts | 334° |
| 2026-04-30 06:52 | 30.21946 | 121.62255 | 26776 ft | 461 kts | 337° |
| 2026-04-30 06:52 | 30.25148 | 121.61583 | 23991 ft | 474 kts | 340° |
| 2026-04-30 06:52 | 30.28383 | 121.60811 | 21642 ft | 478 kts | 339° |
| 2026-04-30 06:53 | 30.31658 | 121.60253 | 19996 ft | 477 kts | 353° |
| 2026-04-30 06:53 | 30.34912 | 121.60993 | 18955 ft | 477 kts | 16° |
| 2026-04-30 06:53 | 30.37810 | 121.62786 | 17997 ft | 462 kts | 26° |
| 2026-04-30 06:53 | 30.40379 | 121.64873 | 16862 ft | 449 kts | 32° |
| 2026-04-30 06:54 | 30.42811 | 121.67056 | 15685 ft | 435 kts | 32° |
| 2026-04-30 06:54 | 30.45238 | 121.69088 | 14469 ft | 423 kts | 29° |
| 2026-04-30 06:54 | 30.47676 | 121.70926 | 13223 ft | 410 kts | 27° |
| 2026-04-30 06:54 | 30.50046 | 121.72602 | 12012 ft | 398 kts | 26° |
| 2026-04-30 06:55 | 30.52387 | 121.74234 | 11079 ft | 381 kts | 26° |
| 2026-04-30 06:55 | 30.54576 | 121.75764 | 10562 ft | 354 kts | 24° |
| 2026-04-30 06:55 | 30.56674 | 121.77079 | 9994 ft | 332 kts | 23° |
| 2026-04-30 06:55 | 30.58599 | 121.78320 | 9839 ft | 304 kts | 23° |
| 2026-04-30 06:56 | 30.60391 | 121.79498 | 9576 ft | 295 kts | 24° |
| 2026-04-30 06:56 | 30.62174 | 121.80665 | 9452 ft | 296 kts | 24° |
| 2026-04-30 06:56 | 30.63943 | 121.81809 | 9192 ft | 297 kts | 24° |
| 2026-04-30 06:56 | 30.65752 | 121.82972 | 8928 ft | 294 kts | 24° |
| 2026-04-30 06:57 | 30.67529 | 121.84112 | 8665 ft | 288 kts | 24° |
| 2026-04-30 06:57 | 30.69272 | 121.85228 | 8343 ft | 285 kts | 24° |
| 2026-04-30 06:57 | 30.71008 | 121.86334 | 7969 ft | 283 kts | 24° |
| 2026-04-30 06:57 | 30.72707 | 121.87409 | 7595 ft | 280 kts | 24° |
| 2026-04-30 06:58 | 30.74424 | 121.88435 | 7236 ft | 274 kts | 18° |
| 2026-04-30 06:58 | 30.76199 | 121.89199 | 6881 ft | 269 kts | 14° |
| 2026-04-30 06:58 | 30.77400 | 121.89657 | 6640 ft | 268 kts | 14° |
| 2026-04-30 06:58 | 30.79743 | 121.90522 | 6132 ft | 265 kts | 14° |
| 2026-04-30 06:59 | 30.81489 | 121.90887 | 5720 ft | 254 kts | 353° |
| 2026-04-30 06:59 | 30.83202 | 121.90460 | 5357 ft | 251 kts | 341° |
| 2026-04-30 06:59 | 30.84891 | 121.89866 | 4985 ft | 256 kts | 341° |
| 2026-04-30 06:59 | 30.86605 | 121.89236 | 4642 ft | 258 kts | 340° |
| 2026-04-30 07:00 | 30.88303 | 121.88599 | 4348 ft | 253 kts | 341° |
| 2026-04-30 07:00 | 30.89946 | 121.87980 | 4075 ft | 247 kts | 341° |
| 2026-04-30 07:00 | 30.91569 | 121.87364 | 3837 ft | 242 kts | 341° |
| 2026-04-30 07:00 | 30.93157 | 121.86767 | 3570 ft | 237 kts | 341° |
| 2026-04-30 07:01 | 30.94693 | 121.86189 | 3296 ft | 232 kts | 341° |
| 2026-04-30 07:01 | 30.96213 | 121.85614 | 3086 ft | 224 kts | 341° |
| 2026-04-30 07:02 | 31.02852 | 121.83109 | 2077 ft | 187 kts | 342° |
| 2026-04-30 07:02 | 31.04062 | 121.82648 | 1774 ft | 178 kts | 342° |
| 2026-04-30 07:03 | 31.05202 | 121.82218 | 1557 ft | 166 kts | 341° |
| 2026-04-30 07:03 | 31.06265 | 121.81818 | 1325 ft | 153 kts | 342° |
| 2026-04-30 07:03 | 31.07257 | 121.81441 | 1152 ft | 151 kts | 341° |
| 2026-04-30 07:03 | 31.08222 | 121.81075 | 948 ft | 143 kts | 343° |
| 2026-04-30 07:04 | 31.09169 | 121.80719 | 775 ft | 143 kts | 343° |
| 2026-04-30 07:04 | 31.10116 | 121.80357 | 565 ft | 142 kts | 342° |
| 2026-04-30 07:04 | 31.11059 | 121.80001 | 366 ft | 141 kts | 343° |
| 2026-04-30 07:04 | 31.11976 | 121.79656 | 194 ft | 141 kts | 343° |
| 2026-04-30 07:05 | 31.13765 | 121.78984 | 30 ft | 107 kts | 342° |
| 2026-04-30 07:05 | 31.14296 | 121.78784 | 26 ft | 53 kts | 342° |
| 2026-04-30 07:05 | 31.14470 | 121.78690 | 28 ft | 13 kts | 321° |
| 2026-04-30 07:06 | 31.14540 | 121.78615 | 27 ft | 14 kts | 315° |
| 2026-04-30 07:06 | 31.14596 | 121.78529 | 27 ft | 14 kts | 280° |
| 2026-04-30 07:06 | 31.14529 | 121.78486 | 26 ft | 14 kts | 166° |
| 2026-04-30 07:06 | 31.14438 | 121.78521 | 27 ft | 14 kts | 162° |
| 2026-04-30 07:07 | 31.14347 | 121.78555 | 27 ft | 14 kts | 162° |
| 2026-04-30 07:07 | 31.14257 | 121.78589 | 27 ft | 14 kts | 162° |
| 2026-04-30 07:07 | 31.14166 | 121.78623 | 27 ft | 14 kts | 162° |
| 2026-04-30 07:07 | 31.14075 | 121.78658 | 28 ft | 15 kts | 162° |
| 2026-04-30 07:08 | 31.13947 | 121.78707 | 27 ft | 24 kts | 162° |
| 2026-04-30 07:08 | 31.13798 | 121.78762 | 27 ft | 22 kts | 162° |
| 2026-04-30 07:08 | 31.13652 | 121.78817 | 27 ft | 22 kts | 162° |
| 2026-04-30 07:08 | 31.13507 | 121.78872 | 28 ft | 22 kts | 162° |
| 2026-04-30 07:09 | 31.13371 | 121.78924 | 28 ft | 16 kts | 162° |
| 2026-04-30 07:09 | 31.13266 | 121.78963 | 28 ft | 15 kts | 162° |
| 2026-04-30 07:09 | 31.13182 | 121.78927 | 27 ft | 15 kts | 251° |
| 2026-04-30 07:09 | 31.13112 | 121.78913 | 27 ft | 11 kts | 162° |
| 2026-04-30 07:10 | 31.13061 | 121.78933 | 28 ft | 11 kts | 162° |
| 2026-04-30 07:10 | 31.12988 | 121.78961 | 27 ft | 9 kts | 162° |
| 2026-04-30 07:10 | 31.12935 | 121.78965 | 27 ft | 8 kts | 213° |
| 2026-04-30 07:10 | 31.12915 | 121.78902 | 27 ft | 8 kts | 253° |
| 2026-04-30 07:11 | 31.12905 | 121.78866 | 27 ft | 0 kts | 252° |
| 2026-04-30 07:11 | 31.12905 | 121.78865 | 27 ft | 0 kts | 252° |